TAF and METAR

Decoding for American and Canadian METARs and TAFs is not fully implemented.

Could not understand the following METAR

KFAR 311253Z 15010KT 10SM CLR 14/02 A3024 RMK AO2 SLP241 T01390022

TAF for Hector International Airport

KFAR 311123Z 3112/0112 15011KT P6SM BKN250 FM311800 16018G28KT P6SM BKN250 FM010400 16011KT P6SM BKN050
Report created 31. mai 13:23

between 31. mai 14:00 - 1. mai 14:00

wind 11 knots from SSE (150°)
Hector International Airport in United States of America at 277m

Latest 5 airports